createdAt,value
2023-06-11T00:01:54.281Z,65.44
2023-06-11T00:04:25.956Z,65.47
2023-06-11T00:07:00.967Z,65.35
2023-06-11T00:09:28.016Z,65.37
2023-06-11T00:11:55.252Z,65.36
2023-06-11T00:14:23.786Z,65.21
2023-06-11T00:16:51.726Z,65.52
2023-06-11T00:19:21.684Z,65.19
2023-06-11T00:21:50.579Z,65.40
2023-06-11T00:24:19.005Z,65.33
2023-06-11T00:26:46.028Z,65.27
2023-06-11T00:29:12.868Z,65.27
2023-06-11T00:31:39.756Z,65.22
2023-06-11T00:34:06.929Z,65.26
2023-06-11T00:36:34.563Z,65.21
2023-06-11T00:39:01.463Z,65.41
2023-06-11T00:41:31.244Z,65.64
2023-06-11T00:43:58.459Z,66.01
2023-06-11T00:46:25.845Z,65.63
2023-06-11T00:48:52.676Z,65.88
2023-06-11T00:51:23.171Z,66.09
2023-06-11T00:53:50.177Z,66.01
2023-06-11T00:56:18.824Z,66.37
2023-06-11T00:58:46.973Z,66.35
2023-06-11T01:01:18.892Z,66.46
2023-06-11T01:03:45.740Z,66.54
2023-06-11T01:06:20.807Z,66.91
2023-06-11T01:08:54.358Z,66.78
2023-06-11T01:11:24.804Z,66.95
2023-06-11T01:13:55.443Z,66.96
2023-06-11T01:16:35.768Z,67.03
2023-06-11T01:19:21.314Z,67.29
2023-06-11T01:22:00.548Z,67.24
2023-06-11T01:25:00.359Z,67.39
2023-06-11T01:27:45.269Z,67.40
2023-06-11T01:30:22.054Z,67.45
2023-06-11T01:32:57.304Z,67.24
2023-06-11T01:35:25.800Z,67.46
2023-06-11T01:37:59.571Z,67.46
2023-06-11T01:40:27.798Z,67.87
2023-06-11T01:42:56.017Z,68.10
2023-06-11T01:45:24.504Z,68.08
2023-06-11T01:47:52.712Z,68.19
2023-06-11T01:50:20.625Z,68.21
2023-06-11T01:52:48.080Z,68.34
2023-06-11T01:55:15.150Z,68.67
2023-06-11T01:57:42.541Z,68.88
2023-06-11T02:00:11.764Z,68.64
2023-06-11T02:02:45.639Z,68.61
2023-06-11T02:05:13.056Z,68.77
2023-06-11T02:07:40.009Z,69.18
2023-06-11T02:10:06.974Z,69.00
2023-06-11T02:12:33.899Z,69.13
2023-06-11T02:15:00.795Z,69.19
2023-06-11T02:17:27.581Z,69.00
2023-06-11T02:19:54.957Z,69.25
2023-06-11T02:22:21.774Z,69.14
2023-06-11T02:24:48.583Z,69.05
2023-06-11T02:27:17.471Z,69.02
2023-06-11T02:29:44.236Z,69.37
2023-06-11T02:32:11.884Z,69.41
2023-06-11T02:34:38.668Z,69.41
2023-06-11T02:37:05.595Z,69.41
2023-06-11T02:39:32.408Z,69.80
2023-06-11T02:41:59.187Z,69.65
2023-06-11T02:44:26.075Z,69.88
2023-06-11T02:46:52.881Z,70.14
2023-06-11T02:49:19.734Z,70.18
2023-06-11T02:51:46.435Z,70.41
2023-06-11T02:54:13.164Z,70.44
2023-06-11T02:56:39.869Z,70.10
2023-06-11T02:59:06.775Z,70.32
2023-06-11T03:01:34.569Z,70.21
2023-06-11T03:04:01.480Z,70.52
2023-06-11T03:06:28.216Z,70.31
2023-06-11T03:08:54.969Z,70.52
2023-06-11T03:11:21.728Z,70.50
2023-06-11T03:13:48.458Z,70.60
2023-06-11T03:16:15.286Z,70.43
2023-06-11T03:18:43.875Z,70.70
2023-06-11T03:21:12.130Z,70.53
2023-06-11T03:23:39.112Z,70.54
2023-06-11T03:26:06.169Z,70.72
2023-06-11T03:28:32.918Z,70.61
2023-06-11T03:30:59.952Z,70.74
2023-06-11T03:33:26.800Z,70.77
2023-06-11T03:35:54.198Z,70.49
2023-06-11T03:38:20.988Z,70.40
2023-06-11T03:40:47.814Z,70.36
2023-06-11T03:43:15.034Z,70.48
2023-06-11T03:45:41.775Z,70.48
2023-06-11T03:48:09.495Z,70.44
2023-06-11T03:50:36.360Z,70.46
2023-06-11T03:53:03.262Z,70.34
2023-06-11T03:55:31.151Z,70.09
2023-06-11T03:57:58.139Z,69.92
2023-06-11T04:00:25.122Z,69.78
2023-06-11T04:02:52.238Z,69.58
2023-06-11T04:05:19.200Z,69.47
2023-06-11T04:07:45.902Z,69.33
2023-06-11T04:10:12.737Z,69.00
2023-06-11T04:12:39.970Z,68.98
2023-06-11T04:15:08.891Z,68.56
2023-06-11T04:17:36.212Z,68.30
2023-06-11T04:20:03.946Z,68.03
2023-06-11T04:22:30.896Z,67.93
2023-06-11T04:24:57.615Z,67.71
2023-06-11T04:27:24.315Z,67.49
2023-06-11T04:29:54.202Z,67.44
2023-06-11T04:32:22.556Z,67.22
2023-06-11T04:34:49.900Z,67.01
2023-06-11T04:37:20.334Z,66.56
2023-06-11T04:39:47.080Z,66.40
2023-06-11T04:42:15.703Z,66.37
2023-06-11T04:44:42.485Z,65.93
2023-06-11T04:47:09.520Z,65.82
2023-06-11T04:49:36.338Z,65.65
2023-06-11T04:52:03.295Z,65.39
2023-06-11T04:54:30.047Z,65.07
2023-06-11T04:56:56.751Z,64.76
2023-06-11T04:59:23.519Z,64.57
2023-06-11T05:01:51.880Z,64.19
2023-06-11T05:04:18.857Z,63.71
2023-06-11T05:06:49.469Z,63.78
2023-06-11T05:09:17.332Z,62.94
2023-06-11T05:11:45.718Z,62.89
2023-06-11T05:14:13.087Z,62.66
2023-06-11T05:16:40.482Z,62.15
2023-06-11T05:19:07.609Z,62.41
2023-06-11T05:21:34.488Z,62.20
2023-06-11T05:24:08.481Z,61.88
2023-06-11T05:26:37.049Z,61.93
2023-06-11T05:29:05.060Z,61.53
2023-06-11T05:31:32.664Z,60.46
2023-06-11T05:33:59.528Z,59.88
2023-06-11T05:36:27.532Z,60.31
2023-06-11T05:38:55.051Z,60.38
2023-06-11T05:41:22.653Z,60.20
2023-06-11T05:43:49.462Z,60.21
2023-06-11T05:46:17.106Z,60.06
2023-06-11T05:48:44.664Z,59.85
2023-06-11T05:51:12.792Z,59.85
2023-06-11T05:53:41.969Z,59.21
2023-06-11T05:56:08.765Z,59.48
2023-06-11T05:58:35.605Z,59.07
2023-06-11T06:01:03.945Z,58.18
2023-06-11T06:03:32.101Z,58.43
2023-06-11T06:06:02.471Z,57.95
2023-06-11T06:08:30.905Z,57.91
2023-06-11T06:10:58.469Z,57.29
2023-06-11T06:13:26.231Z,56.82
2023-06-11T06:15:54.250Z,56.08
2023-06-11T06:18:21.784Z,55.29
2023-06-11T06:20:49.690Z,55.90
2023-06-11T06:23:16.535Z,55.90
2023-06-11T06:25:44.023Z,54.84
2023-06-11T06:28:10.938Z,54.74
2023-06-11T06:30:40.308Z,52.20
2023-06-11T06:33:07.094Z,50.51
2023-06-11T06:35:34.020Z,47.99
2023-06-11T06:38:02.221Z,45.06
2023-06-11T06:40:29.238Z,42.56
2023-06-11T06:42:56.229Z,41.71
2023-06-11T06:45:23.218Z,40.07
2023-06-11T06:47:50.109Z,38.66
2023-06-11T06:50:17.114Z,37.67
2023-06-11T06:52:43.973Z,35.83
2023-06-11T06:55:10.994Z,33.57
2023-06-11T06:57:37.973Z,33.30
2023-06-11T07:00:07.145Z,32.35
2023-06-11T07:02:33.925Z,31.39
2023-06-11T07:05:01.859Z,30.93
2023-06-11T07:07:28.717Z,30.26
2023-06-11T07:09:57.406Z,28.73
2023-06-11T07:12:27.412Z,27.41
2023-06-11T07:14:55.312Z,26.77
2023-06-11T07:17:24.064Z,26.73
2023-06-11T07:19:51.488Z,26.59
2023-06-11T07:22:18.858Z,26.78
2023-06-11T07:24:48.475Z,28.01
2023-06-11T07:27:16.236Z,28.67
2023-06-11T07:29:43.009Z,28.75
2023-06-11T07:32:11.960Z,28.89
2023-06-11T07:34:38.716Z,28.27
2023-06-11T07:37:06.802Z,27.23
2023-06-11T07:39:33.503Z,27.16
2023-06-11T07:42:00.279Z,27.28
2023-06-11T07:44:28.311Z,27.42
2023-06-11T07:46:55.059Z,28.86
2023-06-11T07:49:22.798Z,30.26
2023-06-11T07:51:49.714Z,30.76
2023-06-11T07:54:16.900Z,31.52
2023-06-11T07:56:43.745Z,31.89
2023-06-11T07:59:10.497Z,31.96
2023-06-11T08:01:38.742Z,32.40
2023-06-11T08:04:05.970Z,32.71
2023-06-11T08:06:32.942Z,33.45
2023-06-11T08:08:59.710Z,33.80
2023-06-11T08:11:28.501Z,34.08
2023-06-11T08:13:55.632Z,34.40
2023-06-11T08:16:22.583Z,34.37
2023-06-11T08:18:49.401Z,33.75
2023-06-11T08:21:16.120Z,32.53
2023-06-11T08:23:44.025Z,32.17
2023-06-11T08:26:10.765Z,32.84
2023-06-11T08:28:37.877Z,31.91
2023-06-11T08:31:04.805Z,32.13
2023-06-11T08:33:31.642Z,32.50
2023-06-11T08:35:58.547Z,30.71
2023-06-11T08:38:29.236Z,29.35
2023-06-11T08:40:56.112Z,28.64
2023-06-11T08:43:25.437Z,29.01
2023-06-11T08:45:52.673Z,29.88
2023-06-11T08:48:30.494Z,30.28
2023-06-11T08:51:04.951Z,30.71
2023-06-11T08:53:33.598Z,29.66
2023-06-11T08:56:00.349Z,29.80
2023-06-11T08:58:29.233Z,29.56
2023-06-11T09:00:55.788Z,28.80
2023-06-11T09:03:22.695Z,28.90
2023-06-11T09:05:52.484Z,28.47
2023-06-11T09:08:19.369Z,28.46
2023-06-11T09:10:51.210Z,29.37
2023-06-11T09:13:28.703Z,29.79
2023-06-11T09:16:00.475Z,29.99
2023-06-11T09:18:28.414Z,30.77
2023-06-11T09:21:01.567Z,31.30
2023-06-11T09:23:31.937Z,32.05
2023-06-11T09:26:03.236Z,32.67
2023-06-11T09:28:35.220Z,33.18
2023-06-11T09:31:04.271Z,33.74
2023-06-11T09:33:34.365Z,34.17
2023-06-11T09:36:03.160Z,34.65
2023-06-11T09:38:35.208Z,34.71
2023-06-11T09:41:06.783Z,35.78
2023-06-11T09:43:37.110Z,35.32
2023-06-11T09:46:04.070Z,35.08
2023-06-11T09:48:31.232Z,34.88
2023-06-11T09:51:02.824Z,35.50
2023-06-11T09:53:33.187Z,35.19
2023-06-11T09:56:11.084Z,35.63
2023-06-11T09:58:42.438Z,35.35
2023-06-11T10:01:10.716Z,35.60
2023-06-11T10:03:37.682Z,35.76
2023-06-11T10:06:16.783Z,35.71
2023-06-11T10:08:46.846Z,35.77
2023-06-11T10:11:13.835Z,36.27
2023-06-11T10:13:41.600Z,36.40
2023-06-11T10:16:10.216Z,36.38
2023-06-11T10:18:39.900Z,37.43
2023-06-11T10:21:06.767Z,37.54
2023-06-11T10:23:38.760Z,38.68
2023-06-11T10:26:07.860Z,38.18
2023-06-11T10:28:49.754Z,38.67
2023-06-11T10:31:30.882Z,37.91
2023-06-11T10:34:05.460Z,37.53
2023-06-11T10:36:38.544Z,37.88
2023-06-11T10:39:13.693Z,38.19
2023-06-11T10:41:41.909Z,37.79
2023-06-11T10:44:11.057Z,38.10
2023-06-11T10:46:51.213Z,37.53
2023-06-11T10:49:20.450Z,38.09
2023-06-11T10:51:53.786Z,38.00
2023-06-11T10:54:28.072Z,37.54
2023-06-11T10:57:00.223Z,37.72
2023-06-11T10:59:27.266Z,37.78
2023-06-11T11:01:54.646Z,37.71
2023-06-11T11:04:24.645Z,37.68
2023-06-11T11:07:04.812Z,37.77
2023-06-11T11:09:32.582Z,37.76
2023-06-11T11:12:00.059Z,37.58
2023-06-11T11:14:29.258Z,37.93
2023-06-11T11:16:57.080Z,37.66
2023-06-11T11:19:27.094Z,36.71
2023-06-11T11:21:54.246Z,36.89
2023-06-11T11:24:21.997Z,37.14
2023-06-11T11:26:49.160Z,36.91
2023-06-11T11:29:16.095Z,37.19
2023-06-11T11:31:46.462Z,36.44
2023-06-11T11:34:13.954Z,36.78
2023-06-11T11:36:41.936Z,36.68
2023-06-11T11:39:14.472Z,36.76
2023-06-11T11:41:52.358Z,37.15
2023-06-11T11:44:19.363Z,37.29
2023-06-11T11:46:46.578Z,37.30
2023-06-11T11:49:14.535Z,36.53
2023-06-11T11:51:43.365Z,35.38
2023-06-11T11:54:16.489Z,35.88
2023-06-11T11:56:44.077Z,35.97
2023-06-11T11:59:21.220Z,36.13
2023-06-11T12:02:02.490Z,36.61
2023-06-11T12:04:35.186Z,36.37
2023-06-11T12:07:12.284Z,36.58
2023-06-11T12:09:40.680Z,37.14
2023-06-11T12:12:08.862Z,37.03
2023-06-11T12:14:36.235Z,37.24
2023-06-11T12:17:05.228Z,37.44
2023-06-11T12:19:32.913Z,37.25
2023-06-11T12:21:59.755Z,37.05
2023-06-11T12:24:26.706Z,37.42
2023-06-11T12:26:53.967Z,37.38
2023-06-11T12:29:20.795Z,36.48
2023-06-11T12:31:50.176Z,36.50
2023-06-11T12:34:17.408Z,36.47
2023-06-11T12:36:44.878Z,36.66
2023-06-11T12:39:12.245Z,37.05
2023-06-11T12:41:39.046Z,36.27
2023-06-11T12:44:06.001Z,36.43
2023-06-11T12:46:32.978Z,35.87
2023-06-11T12:48:59.761Z,35.74
2023-06-11T12:51:26.538Z,35.84
2023-06-11T12:53:54.055Z,35.42
2023-06-11T12:56:24.268Z,35.09
2023-06-11T12:58:51.754Z,35.02
2023-06-11T13:01:18.970Z,35.05
2023-06-11T13:03:45.930Z,35.74
2023-06-11T13:06:12.805Z,35.56
2023-06-11T13:08:40.603Z,34.92
2023-06-11T13:11:10.928Z,34.43
2023-06-11T13:13:37.749Z,34.85
2023-06-11T13:16:04.753Z,34.75
2023-06-11T13:18:31.792Z,35.15
2023-06-11T13:21:00.777Z,34.85
2023-06-11T13:23:32.532Z,34.77
2023-06-11T13:26:01.400Z,34.53
2023-06-11T13:28:28.591Z,35.00
2023-06-11T13:30:57.227Z,34.73
2023-06-11T13:33:31.899Z,34.88
2023-06-11T13:35:59.100Z,34.46
2023-06-11T13:38:26.475Z,34.43
2023-06-11T13:40:56.046Z,34.72
2023-06-11T13:43:22.958Z,34.42
2023-06-11T13:45:51.066Z,33.65
2023-06-11T13:48:19.660Z,33.39
2023-06-11T13:50:48.654Z,33.56
2023-06-11T13:53:22.017Z,33.86
2023-06-11T13:55:49.168Z,34.19
2023-06-11T13:58:17.358Z,34.72
2023-06-11T14:00:45.152Z,34.92
2023-06-11T14:03:14.325Z,34.92
2023-06-11T14:05:41.227Z,34.80
2023-06-11T14:08:09.373Z,34.54
2023-06-11T14:10:36.123Z,34.15
2023-06-11T14:13:04.163Z,34.50
2023-06-11T14:15:31.351Z,33.65
2023-06-11T14:17:59.528Z,33.98
2023-06-11T14:20:26.441Z,33.94
2023-06-11T14:22:53.247Z,33.07
2023-06-11T14:25:20.051Z,33.34
2023-06-11T14:27:46.845Z,33.20
2023-06-11T14:30:14.561Z,33.11
2023-06-11T14:32:41.606Z,33.00
2023-06-11T14:35:08.556Z,33.40
2023-06-11T14:37:35.333Z,33.80
2023-06-11T14:40:02.145Z,33.77
2023-06-11T14:42:30.467Z,34.54
2023-06-11T14:44:57.356Z,34.18
2023-06-11T14:47:25.490Z,33.80
2023-06-11T14:49:52.872Z,33.44
2023-06-11T14:52:20.232Z,33.00
2023-06-11T14:54:47.664Z,33.19
2023-06-11T14:57:19.804Z,33.19
2023-06-11T14:59:46.829Z,33.21
2023-06-11T15:02:17.182Z,33.54
2023-06-11T15:04:45.110Z,34.20
2023-06-11T15:09:45.976Z,33.47
2023-06-11T15:12:13.999Z,33.26
2023-06-11T15:14:41.482Z,33.35
2023-06-11T15:17:08.276Z,32.98
2023-06-11T15:19:36.046Z,33.02
2023-06-11T15:22:06.714Z,33.19
2023-06-11T15:24:33.551Z,33.10
2023-06-11T15:27:00.412Z,33.29
2023-06-11T15:29:27.440Z,32.84
2023-06-11T15:32:01.807Z,32.29
2023-06-11T15:34:28.642Z,32.55
2023-06-11T15:36:55.345Z,32.37
2023-06-11T15:39:22.126Z,32.51
2023-06-11T15:41:48.941Z,33.15
2023-06-11T15:44:15.741Z,32.72
2023-06-11T15:46:43.457Z,32.66
2023-06-11T15:49:10.374Z,32.43
2023-06-11T15:51:39.610Z,32.76
2023-06-11T15:54:08.242Z,32.95
2023-06-11T15:56:35.409Z,33.21
2023-06-11T15:59:02.141Z,33.51
2023-06-11T16:01:31.370Z,33.50
2023-06-11T16:03:59.717Z,33.55
2023-06-11T16:06:26.581Z,33.50
2023-06-11T16:08:54.462Z,33.42
2023-06-11T16:11:21.291Z,33.33
2023-06-11T16:13:48.034Z,33.61
2023-06-11T16:16:14.805Z,33.61
2023-06-11T16:18:41.825Z,33.58
2023-06-11T16:21:08.571Z,33.38
2023-06-11T16:23:35.401Z,33.34
2023-06-11T16:26:03.826Z,33.38
2023-06-11T16:28:30.611Z,33.71
2023-06-11T16:30:58.291Z,34.03
2023-06-11T16:33:25.341Z,33.91
2023-06-11T16:35:52.712Z,34.06
2023-06-11T16:38:20.579Z,33.87
2023-06-11T16:40:47.398Z,33.69
2023-06-11T16:43:14.198Z,33.79
2023-06-11T16:45:41.136Z,33.66
2023-06-11T16:48:08.426Z,33.78
2023-06-11T16:50:36.155Z,34.04
2023-06-11T16:53:02.952Z,34.03
2023-06-11T16:55:30.212Z,34.48
2023-06-11T16:57:58.405Z,33.53
2023-06-11T17:00:25.358Z,34.21
2023-06-11T17:02:56.083Z,33.86
2023-06-11T17:05:23.325Z,34.17
2023-06-11T17:08:00.581Z,34.31
2023-06-11T17:10:30.159Z,34.34
2023-06-11T17:12:57.593Z,34.54
2023-06-11T17:15:25.613Z,34.70
2023-06-11T17:17:52.479Z,34.80
2023-06-11T17:20:19.554Z,34.59
2023-06-11T17:22:48.676Z,34.86
2023-06-11T17:25:16.886Z,35.09
2023-06-11T17:27:46.860Z,35.30
2023-06-11T17:30:13.997Z,35.40
2023-06-11T17:32:41.872Z,35.55
2023-06-11T17:35:09.155Z,35.49
2023-06-11T17:37:37.152Z,35.18
2023-06-11T17:40:05.817Z,35.49
2023-06-11T17:42:32.673Z,35.27
2023-06-11T17:45:00.574Z,35.10
2023-06-11T17:47:27.445Z,35.31
2023-06-11T17:49:54.818Z,35.37
2023-06-11T17:52:21.754Z,35.29
2023-06-11T17:54:48.549Z,35.31
2023-06-11T17:57:16.490Z,35.53
2023-06-11T17:59:46.300Z,35.71
2023-06-11T18:02:15.439Z,35.72
2023-06-11T18:04:42.171Z,35.89
2023-06-11T18:07:08.933Z,35.90
2023-06-11T18:09:39.223Z,36.31
2023-06-11T18:12:07.032Z,36.42
2023-06-11T18:14:34.720Z,36.38
2023-06-11T18:17:01.488Z,36.74
2023-06-11T18:19:29.152Z,38.05
2023-06-11T18:21:56.074Z,38.12
2023-06-11T18:24:23.619Z,39.21
2023-06-11T18:26:51.101Z,39.37
2023-06-11T18:29:18.010Z,40.15
2023-06-11T18:31:44.807Z,40.63
2023-06-11T18:34:11.600Z,40.54
2023-06-11T18:36:39.477Z,40.87
2023-06-11T18:39:06.471Z,41.01
2023-06-11T18:41:33.273Z,41.23
2023-06-11T18:44:00.003Z,41.35
2023-06-11T18:46:29.281Z,42.10
2023-06-11T18:48:56.294Z,42.28
2023-06-11T18:51:23.068Z,42.80
2023-06-11T18:53:49.821Z,42.91
2023-06-11T18:56:16.574Z,43.28
2023-06-11T18:58:43.354Z,43.61
2023-06-11T19:01:10.495Z,43.46
2023-06-11T19:03:40.570Z,43.67
2023-06-11T19:06:08.856Z,43.71
2023-06-11T19:08:35.759Z,44.45
2023-06-11T19:11:03.390Z,44.45
2023-06-11T19:13:33.195Z,45.07
2023-06-11T19:16:00.588Z,44.75
2023-06-11T19:18:27.680Z,44.95
2023-06-11T19:20:54.845Z,45.36
2023-06-11T19:23:21.758Z,45.16
2023-06-11T19:25:48.891Z,45.94
2023-06-11T19:28:17.392Z,45.85
2023-06-11T19:30:44.275Z,45.96
2023-06-11T19:33:11.632Z,46.21
2023-06-11T19:35:39.092Z,46.48
2023-06-11T19:38:05.998Z,46.70
2023-06-11T19:40:32.953Z,46.59
2023-06-11T19:42:59.760Z,46.73
2023-06-11T19:45:27.712Z,46.75
2023-06-11T19:47:55.684Z,47.30
2023-06-11T19:50:27.365Z,47.34
2023-06-11T19:52:54.761Z,47.36
2023-06-11T19:55:21.774Z,48.10
2023-06-11T19:57:48.589Z,48.26
2023-06-11T20:00:16.439Z,48.30
2023-06-11T20:02:43.237Z,48.92
2023-06-11T20:05:10.440Z,48.85
2023-06-11T20:07:37.209Z,49.23
2023-06-11T20:10:04.303Z,49.54
2023-06-11T20:12:31.210Z,49.79
2023-06-11T20:14:58.045Z,49.93
2023-06-11T20:17:24.943Z,50.21
2023-06-11T20:19:51.766Z,50.36
2023-06-11T20:22:18.618Z,50.65
2023-06-11T20:24:47.287Z,50.47
2023-06-11T20:27:14.028Z,50.88
2023-06-11T20:29:59.598Z,51.85
2023-06-11T20:32:26.468Z,51.15
2023-06-11T20:34:53.289Z,51.21
2023-06-11T20:37:21.461Z,51.50
2023-06-11T20:39:48.255Z,51.50
2023-06-11T20:42:16.451Z,51.62
2023-06-11T20:44:43.197Z,51.59
2023-06-11T20:47:10.109Z,52.02
2023-06-11T20:49:37.872Z,52.16
2023-06-11T20:52:06.174Z,52.19
2023-06-11T20:54:33.007Z,52.45
2023-06-11T20:56:59.781Z,52.64
2023-06-11T20:59:26.564Z,52.64
2023-06-11T21:01:54.355Z,52.82
2023-06-11T21:04:21.217Z,53.01
2023-06-11T21:06:47.977Z,53.22
2023-06-11T21:09:14.695Z,53.26
2023-06-11T21:11:42.811Z,53.50
2023-06-11T21:14:14.270Z,53.50
2023-06-11T21:16:41.986Z,53.64
2023-06-11T21:19:09.234Z,53.62
2023-06-11T21:21:37.826Z,53.98
2023-06-11T21:24:05.049Z,54.13
2023-06-11T21:26:31.811Z,53.79
2023-06-11T21:29:01.237Z,54.46
2023-06-11T21:31:28.328Z,54.10
2023-06-11T21:33:55.104Z,54.20
2023-06-11T21:36:21.951Z,54.38
2023-06-11T21:38:48.732Z,54.56
2023-06-11T21:41:17.126Z,54.57
2023-06-11T21:43:43.963Z,54.66
2023-06-11T21:46:10.769Z,54.87
2023-06-11T21:48:37.545Z,55.10
2023-06-11T21:51:04.315Z,55.20
2023-06-11T21:53:31.026Z,55.00
2023-06-11T21:55:57.826Z,55.05
2023-06-11T21:58:26.264Z,55.61
2023-06-11T22:00:53.135Z,55.37
2023-06-11T22:03:20.479Z,55.33
2023-06-11T22:05:47.511Z,55.42
2023-06-11T22:08:14.987Z,55.69
2023-06-11T22:10:41.714Z,55.87
2023-06-11T22:13:08.585Z,56.02
2023-06-11T22:15:35.698Z,56.38
2023-06-11T22:18:05.351Z,56.62
2023-06-11T22:20:33.775Z,56.71
2023-06-11T22:23:01.275Z,57.04
2023-06-11T22:25:28.312Z,57.12
2023-06-11T22:27:56.280Z,57.30
2023-06-11T22:30:23.605Z,57.13
2023-06-11T22:32:51.778Z,57.45
2023-06-11T22:35:18.615Z,57.67
2023-06-11T22:37:45.405Z,57.74
2023-06-11T22:40:12.763Z,58.00
2023-06-11T22:42:39.717Z,57.88
2023-06-11T22:45:08.218Z,57.98
2023-06-11T22:47:35.104Z,57.81
2023-06-11T22:50:02.196Z,58.27
2023-06-11T22:52:32.588Z,58.12
2023-06-11T22:54:59.321Z,58.57
2023-06-11T22:57:26.150Z,58.45
2023-06-11T22:59:52.956Z,58.55
2023-06-11T23:02:20.184Z,58.58
2023-06-11T23:04:47.169Z,58.82
2023-06-11T23:07:18.398Z,59.01
2023-06-11T23:09:45.709Z,58.85
2023-06-11T23:12:15.446Z,60.27
2023-06-11T23:14:42.230Z,59.19
2023-06-11T23:17:10.503Z,59.01
2023-06-11T23:19:38.875Z,59.05
2023-06-11T23:22:08.663Z,58.83
2023-06-11T23:24:40.792Z,59.28
2023-06-11T23:27:08.616Z,59.32
2023-06-11T23:29:36.005Z,59.40
2023-06-11T23:32:04.034Z,59.29
2023-06-11T23:34:31.944Z,59.21
2023-06-11T23:37:00.977Z,59.26
2023-06-11T23:39:28.890Z,59.29
2023-06-11T23:41:58.178Z,59.29
2023-06-11T23:44:24.938Z,59.50
2023-06-11T23:46:51.686Z,59.59
2023-06-11T23:49:19.584Z,59.71
2023-06-11T23:51:46.517Z,59.45
2023-06-11T23:54:14.910Z,59.49
2023-06-11T23:56:42.053Z,59.52
2023-06-11T23:59:08.978Z,59.59
